Time;durP1;ratioP1;P1;durP2;ratioP2;P2;SDS_P1;SDS_P2;PMS_P1;PMS_P2;Temp;Humidity;BMP_temperature;BMP_pressure;BME280_temperature;BME280_humidity;BME280_pressure;Samples;Min_cycle;Max_cycle;Signal;HPM_P1;HPM_P2
2022/10/16 00:01:50;;;;;;;;;;;;;;;11.45;66.26;100457.53;4973408;28;20297;-86
2022/10/16 00:04:16;;;;;;;;;;;;;;;11.47;66.72;100459.25;4955846;28;19972;-85
2022/10/16 00:06:41;;;;;;;;;;;;;;;11.66;65.93;100453.84;4973315;28;19917;-85
2022/10/16 00:09:07;;;;;;;;;;;;;;;11.71;65.58;100457.34;4959131;28;19929;-85
2022/10/16 00:11:33;;;;;;;;;;;;;;;11.73;65.63;100458.19;4976839;28;19913;-85
2022/10/16 00:13:59;;;;;;;;;;;;;;;11.80;65.57;100451.97;4975124;28;19921;-84
2022/10/16 00:16:25;;;;;;;;;;;;;;;11.80;65.53;100459.00;4979093;28;19921;-86
2022/10/16 00:18:51;;;;;;;;;;;;;;;11.76;65.37;100459.94;4996141;28;20312;-87
2022/10/16 00:21:18;;;;;;;;;;;;;;;11.88;65.14;100454.56;4979427;28;20393;-86
2022/10/16 00:23:43;;;;;;;;;;;;;;;11.72;65.23;100455.56;4976334;28;19918;-86
2022/10/16 00:26:10;;;;;;;;;;;;;;;11.70;65.35;100458.22;4977271;28;20495;-85
2022/10/16 00:28:36;;;;;;;;;;;;;;;11.68;65.56;100457.38;4976358;28;19918;-85
2022/10/16 00:31:08;;;;;;;;;;;;;;;11.68;65.52;100457.38;4990048;28;20372;-86
2022/10/16 00:33:34;;;;;;;;;;;;;;;11.64;65.37;100455.63;4996147;28;20072;-85
2022/10/16 00:36:00;;;;;;;;;;;;;;;11.65;65.10;100465.31;4995866;28;19960;-86
2022/10/16 00:38:26;;;;;;;;;;;;;;;11.45;65.67;100468.09;4996202;28;19949;-85
2022/10/16 00:40:51;;;;;;;;;;;;;;;11.39;65.82;100468.13;4995178;28;19944;-89
2022/10/16 00:43:35;;;;;;;;;;;;;;;11.31;67.05;100470.81;4994439;28;19933;-85
2022/10/16 00:46:01;;;;;;;;;;;;;;;11.18;67.17;100471.75;4995488;28;19914;-84
2022/10/16 00:48:27;;;;;;;;;;;;;;;11.11;67.47;100468.28;4995624;28;19913;-84
2022/10/16 00:50:53;;;;;;;;;;;;;;;11.11;68.05;100473.56;4995755;28;19917;-85
2022/10/16 00:53:18;;;;;;;;;;;;;;;11.24;67.26;100469.94;4988082;28;19922;-84
2022/10/16 00:55:43;;;;;;;;;;;;;;;11.17;67.19;100486.72;4976243;28;19914;-84
2022/10/16 00:58:09;;;;;;;;;;;;;;;11.26;67.05;100484.03;4976167;28;19914;-85
2022/10/16 01:00:34;;;;;;;;;;;;;;;11.18;67.33;100491.09;4991404;28;20004;-85
2022/10/16 01:03:00;;;;;;;;;;;;;;;11.14;67.44;100492.03;4996512;28;19949;-86
2022/10/16 01:05:38;;;;;;;;;;;;;;;11.18;67.26;100490.25;4996046;28;19998;-85
2022/10/16 01:08:03;;;;;;;;;;;;;;;11.19;67.46;100505.22;4988512;28;19910;-84
2022/10/16 01:10:40;;;;;;;;;;;;;;;11.20;67.32;100499.03;4993091;28;20020;-85
2022/10/16 01:13:07;;;;;;;;;;;;;;;11.27;66.95;100501.63;4995729;28;19957;-86
2022/10/16 01:15:32;;;;;;;;;;;;;;;11.25;67.42;100506.03;4995095;28;19909;-84
2022/10/16 01:18:00;;;;;;;;;;;;;;;11.29;67.39;100514.81;4977803;28;19971;-86
2022/10/16 01:20:29;;;;;;;;;;;;;;;11.23;67.67;100510.47;4994242;28;19960;-87
2022/10/16 01:22:57;;;;;;;;;;;;;;;11.23;67.97;100514.84;4977988;28;19918;-88
2022/10/16 01:25:29;;;;;;;;;;;;;;;11.27;67.54;100513.97;4956473;29;19954;-85
2022/10/16 01:27:56;;;;;;;;;;;;;;;11.26;67.70;100523.66;4956118;29;19918;-87
2022/10/16 01:30:27;;;;;;;;;;;;;;;11.17;68.06;100515.78;4953137;28;20358;-86
2022/10/16 01:32:57;;;;;;;;;;;;;;;11.29;67.45;100520.09;4936819;29;19915;-85
2022/10/16 01:35:23;;;;;;;;;;;;;;;11.20;67.81;100515.75;4936973;29;19919;-85
2022/10/16 01:38:07;;;;;;;;;;;;;;;11.15;68.11;100514.03;4937384;29;20412;-85
2022/10/16 01:40:34;;;;;;;;;;;;;;;11.08;67.57;100524.59;4935815;29;19922;-83
2022/10/16 01:43:02;;;;;;;;;;;;;;;11.10;67.59;100522.81;4942530;29;20388;-86
2022/10/16 01:45:29;;;;;;;;;;;;;;;11.17;67.50;100530.72;4955630;29;19918;-87
2022/10/16 01:47:55;;;;;;;;;;;;;;;11.19;67.79;100528.97;4955874;29;19938;-86
2022/10/16 01:50:21;;;;;;;;;;;;;;;11.18;67.81;100530.72;4955652;29;19914;-85
2022/10/16 01:52:48;;;;;;;;;;;;;;;11.36;67.30;100534.19;4961004;28;20085;-86
2022/10/16 01:55:17;;;;;;;;;;;;;;;11.38;67.40;100535.03;4956276;29;19922;-85
2022/10/16 01:57:45;;;;;;;;;;;;;;;11.38;67.65;100537.69;4956477;29;19915;-84
2022/10/16 02:00:12;;;;;;;;;;;;;;;11.46;67.16;100541.16;4950064;29;20377;-85
2022/10/16 02:02:39;;;;;;;;;;;;;;;11.57;67.24;100541.09;4939875;29;19922;-86
2022/10/16 02:05:08;;;;;;;;;;;;;;;11.54;67.59;100539.38;4956016;29;20365;-85
2022/10/16 02:07:34;;;;;;;;;;;;;;;11.64;67.39;100541.06;4956401;29;19915;-86
2022/10/16 02:10:00;;;;;;;;;;;;;;;11.70;66.96;100539.28;4955830;29;20384;-87
2022/10/16 02:12:27;;;;;;;;;;;;;;;11.67;67.29;100544.59;4954862;29;19921;-86
2022/10/16 02:14:53;;;;;;;;;;;;;;;11.51;67.98;100539.38;4936267;29;20408;-85
2022/10/16 02:17:18;;;;;;;;;;;;;;;11.57;67.64;100541.09;4936448;29;19986;-86
2022/10/16 02:19:45;;;;;;;;;;;;;;;11.59;68.12;100544.63;4936206;29;19923;-86
2022/10/16 02:22:16;;;;;;;;;;;;;;;11.54;68.00;100546.41;4944913;29;19926;-86
2022/10/16 02:24:56;;;;;;;;;;;;;;;11.55;68.10;100541.09;4955042;29;19922;-85
2022/10/16 02:27:21;;;;;;;;;;;;;;;11.42;68.55;100544.72;4955004;29;20397;-86
2022/10/16 02:29:51;;;;;;;;;;;;;;;11.65;68.29;100547.25;4977622;28;20020;-87
2022/10/16 02:32:19;;;;;;;;;;;;;;;11.64;68.27;100546.34;4985292;28;19914;-86
2022/10/16 02:34:45;;;;;;;;;;;;;;;11.71;67.73;100549.84;4985146;28;19918;-87
2022/10/16 02:37:10;;;;;;;;;;;;;;;11.58;67.72;100548.16;4994833;28;20484;-87
2022/10/16 02:39:37;;;;;;;;;;;;;;;11.48;67.95;100549.97;4994053;28;19914;-88
2022/10/16 02:42:02;;;;;;;;;;;;;;;11.44;68.51;100553.50;4993947;28;19921;-86
2022/10/16 02:44:28;;;;;;;;;;;;;;;11.37;68.67;100554.41;4985579;28;19914;-87
2022/10/16 02:46:53;;;;;;;;;;;;;;;11.42;68.44;100558.78;4974711;28;20397;-86
2022/10/16 02:49:18;;;;;;;;;;;;;;;11.41;68.21;100558.81;4975307;28;20004;-85
2022/10/16 02:51:44;;;;;;;;;;;;;;;11.39;68.15;100576.44;4975513;28;19918;-83
2022/10/16 02:54:09;;;;;;;;;;;;;;;11.18;68.47;100572.09;4973611;28;19926;-85
2022/10/16 02:56:34;;;;;;;;;;;;;;;10.98;69.79;100573.03;4972561;28;20296;-85
2022/10/16 02:58:59;;;;;;;;;;;;;;;11.08;69.94;100576.53;4973572;28;19924;-88
2022/10/16 03:01:25;;;;;;;;;;;;;;;11.26;69.26;100578.22;4987829;28;19914;-87
2022/10/16 03:03:50;;;;;;;;;;;;;;;11.39;68.48;100571.16;4991251;28;20008;-88
2022/10/16 03:06:15;;;;;;;;;;;;;;;11.40;68.59;100573.78;4973683;28;20293;-87
2022/10/16 03:08:41;;;;;;;;;;;;;;;11.26;68.62;100581.75;4973655;28;20305;-84
2022/10/16 03:11:07;;;;;;;;;;;;;;;11.21;68.67;100585.31;4973637;28;19920;-85
2022/10/16 03:13:33;;;;;;;;;;;;;;;11.31;68.68;100580.84;4973040;28;19964;-86
2022/10/16 03:15:58;;;;;;;;;;;;;;;11.27;68.84;100580.84;4973377;28;20404;-84
2022/10/16 03:18:23;;;;;;;;;;;;;;;11.37;68.41;100584.38;4972947;28;19914;-84
2022/10/16 03:20:48;;;;;;;;;;;;;;;11.41;68.44;100595.78;4972834;28;20411;-84
2022/10/16 03:23:14;;;;;;;;;;;;;;;11.46;68.25;100594.00;4991859;28;19917;-84
2022/10/16 03:25:39;;;;;;;;;;;;;;;11.52;68.27;100591.31;4991874;28;19918;-85
2022/10/16 03:28:05;;;;;;;;;;;;;;;11.59;67.93;100606.28;4974671;28;19920;-87
2022/10/16 03:30:30;;;;;;;;;;;;;;;11.53;68.21;100595.75;4992204;28;19922;-86
2022/10/16 03:32:55;;;;;;;;;;;;;;;11.47;68.84;100596.63;4992581;28;20434;-86
2022/10/16 03:35:21;;;;;;;;;;;;;;;11.49;68.45;100601.91;4991578;28;20017;-86
2022/10/16 03:37:46;;;;;;;;;;;;;;;11.43;68.47;100594.91;4991744;28;19918;-86
2022/10/16 03:40:12;;;;;;;;;;;;;;;11.43;68.39;100605.47;4992101;28;19921;-86
2022/10/16 03:42:37;;;;;;;;;;;;;;;11.37;68.23;100607.25;4991448;28;20083;-87
2022/10/16 03:45:03;;;;;;;;;;;;;;;11.20;68.51;100605.56;4991603;28;19918;-86
2022/10/16 03:47:28;;;;;;;;;;;;;;;11.37;68.67;100607.25;4991979;28;19913;-86
2022/10/16 03:49:54;;;;;;;;;;;;;;;11.38;68.11;100615.16;4991893;28;19914;-86
2022/10/16 03:52:19;;;;;;;;;;;;;;;11.36;68.27;100613.44;4991818;28;20311;-84
2022/10/16 03:54:44;;;;;;;;;;;;;;;11.35;68.51;100609.03;4991757;28;19953;-84
2022/10/16 03:57:09;;;;;;;;;;;;;;;11.32;68.08;100615.19;4991352;28;20012;-84
2022/10/16 03:59:35;;;;;;;;;;;;;;;11.26;68.52;100612.56;4990359;28;20331;-84
2022/10/16 04:02:00;;;;;;;;;;;;;;;11.20;68.36;100617.88;4992425;28;19920;-84
2022/10/16 04:04:26;;;;;;;;;;;;;;;11.10;68.55;100614.38;4989904;28;19928;-84
2022/10/16 04:06:51;;;;;;;;;;;;;;;11.08;68.58;100617.03;4973078;28;19921;-84
2022/10/16 04:09:16;;;;;;;;;;;;;;;11.05;68.25;100614.38;4972765;28;19910;-84
2022/10/16 04:11:43;;;;;;;;;;;;;;;10.93;68.27;100620.56;4972582;28;19925;-84
2022/10/16 04:14:08;;;;;;;;;;;;;;;10.86;68.73;100613.56;4972441;28;19918;-86
2022/10/16 04:16:34;;;;;;;;;;;;;;;10.89;68.67;100616.19;4955023;28;19977;-86
2022/10/16 04:18:59;;;;;;;;;;;;;;;10.90;68.63;100612.66;4974977;28;19918;-87
2022/10/16 04:21:24;;;;;;;;;;;;;;;10.85;68.64;100608.28;4991347;28;20310;-86
2022/10/16 04:23:49;;;;;;;;;;;;;;;10.72;68.62;100615.31;4991810;28;20389;-86
2022/10/16 04:26:15;;;;;;;;;;;;;;;10.56;69.54;100615.31;4990422;28;19918;-87
2022/10/16 04:28:40;;;;;;;;;;;;;;;10.72;68.80;100616.22;4991304;28;20016;-88
2022/10/16 04:31:06;;;;;;;;;;;;;;;10.81;68.54;100622.34;4979175;28;19918;-87
2022/10/16 04:33:31;;;;;;;;;;;;;;;10.73;68.57;100623.22;4972450;28;20384;-87
2022/10/16 04:35:58;;;;;;;;;;;;;;;10.74;68.36;100624.13;4986091;28;19928;-86
2022/10/16 04:38:23;;;;;;;;;;;;;;;10.60;68.95;100621.50;4990222;28;20367;-86
2022/10/16 04:40:48;;;;;;;;;;;;;;;10.60;69.23;100623.22;4991526;28;19996;-85
2022/10/16 04:43:14;;;;;;;;;;;;;;;10.50;69.41;100632.91;4991790;28;19918;-86
2022/10/16 04:45:39;;;;;;;;;;;;;;;10.64;68.73;100625.88;4990893;28;19924;-86
2022/10/16 04:48:04;;;;;;;;;;;;;;;10.63;68.74;100636.41;4991819;28;20388;-85
2022/10/16 04:50:29;;;;;;;;;;;;;;;10.54;69.17;100632.91;4990832;28;19968;-85
2022/10/16 04:52:55;;;;;;;;;;;;;;;10.51;69.32;100627.63;4991696;28;19913;-85
2022/10/16 04:55:20;;;;;;;;;;;;;;;10.32;69.74;100631.13;4992888;28;19918;-85
2022/10/16 04:57:45;;;;;;;;;;;;;;;10.39;69.53;100628.53;4994932;28;19936;-85
2022/10/16 05:00:11;;;;;;;;;;;;;;;10.29;69.35;100631.13;4976963;28;20404;-86
2022/10/16 05:02:36;;;;;;;;;;;;;;;10.32;69.30;100641.69;4991508;28;19918;-85
2022/10/16 05:05:02;;;;;;;;;;;;;;;10.41;69.20;100638.19;4990321;28;19918;-86
2022/10/16 05:07:27;;;;;;;;;;;;;;;10.44;68.71;100640.81;4972242;28;20690;-86
2022/10/16 05:09:53;;;;;;;;;;;;;;;10.56;68.32;100639.06;4973975;28;20001;-86
2022/10/16 05:12:18;;;;;;;;;;;;;;;10.57;68.21;100648.75;4974471;28;19914;-86
2022/10/16 05:14:44;;;;;;;;;;;;;;;10.55;68.07;100646.97;4974880;28;19945;-86
2022/10/16 05:17:09;;;;;;;;;;;;;;;10.44;68.44;100643.47;4971127;28;20435;-86
2022/10/16 05:19:34;;;;;;;;;;;;;;;10.41;68.77;100649.63;4972864;28;19918;-86
2022/10/16 05:22:00;;;;;;;;;;;;;;;10.37;68.74;100658.41;4972824;28;19969;-87
2022/10/16 05:24:25;;;;;;;;;;;;;;;10.33;69.19;100654.91;4973188;28;19918;-86
2022/10/16 05:26:51;;;;;;;;;;;;;;;10.19;70.50;100660.13;4957638;28;19921;-88
2022/10/16 05:29:16;;;;;;;;;;;;;;;10.29;70.29;100663.66;4974602;28;19969;-86
2022/10/16 05:31:41;;;;;;;;;;;;;;;10.20;70.96;100661.00;4975485;28;19952;-87
2022/10/16 05:34:07;;;;;;;;;;;;;;;10.07;71.84;100673.28;4975160;28;19914;-87
2022/10/16 05:36:32;;;;;;;;;;;;;;;10.28;71.86;100674.19;4975010;28;19921;-89
2022/10/16 05:38:57;;;;;;;;;;;;;;;10.16;71.88;100681.22;4974648;28;20348;-89
2022/10/16 05:41:26;;;;;;;;;;;;;;;10.32;72.30;100676.84;4975072;28;19910;-91
2022/10/16 05:43:51;;;;;;;;;;;;;;;10.37;72.03;100688.28;4973853;28;19918;-89
2022/10/16 05:46:17;;;;;;;;;;;;;;;10.22;72.49;100688.22;4974893;28;19972;-89
2022/10/16 05:48:45;;;;;;;;;;;;;;;10.18;72.86;100692.63;4975127;28;19937;-93
2022/10/16 05:51:15;;;;;;;;;;;;;;;10.28;73.07;100692.66;4973624;28;20038;-91
2022/10/16 05:53:40;;;;;;;;;;;;;;;10.20;73.38;100696.13;4974977;28;20392;-90
2022/10/16 05:56:07;;;;;;;;;;;;;;;10.50;73.29;100693.59;4974736;28;19941;-92
2022/10/16 05:58:33;;;;;;;;;;;;;;;10.67;72.30;100696.25;4973713;28;20005;-92
2022/10/16 06:01:00;;;;;;;;;;;;;;;10.52;72.75;100702.41;4955044;28;20444;-90
2022/10/16 06:03:26;;;;;;;;;;;;;;;10.75;71.96;100700.66;4984155;28;19958;-90
2022/10/16 06:05:52;;;;;;;;;;;;;;;10.87;72.14;100699.75;4975128;28;19988;-91
2022/10/16 06:08:18;;;;;;;;;;;;;;;11.13;73.06;100706.78;4956350;28;20476;-90
2022/10/16 06:10:44;;;;;;;;;;;;;;;11.44;71.63;100706.75;4974521;28;19914;-91
2022/10/16 06:13:10;;;;;;;;;;;;;;;11.72;69.69;100719.88;4974600;28;20048;-93
2022/10/16 06:15:35;;;;;;;;;;;;;;;12.15;68.91;100723.25;4956353;28;19961;-91
2022/10/16 06:18:01;;;;;;;;;;;;;;;12.13;67.33;100727.66;4974035;28;19929;-91
2022/10/16 06:20:28;;;;;;;;;;;;;;;11.88;67.93;100724.22;4956078;28;19918;-91
2022/10/16 06:22:54;;;;;;;;;;;;;;;11.73;69.38;100719.88;4973101;28;19918;-90
2022/10/16 06:25:19;;;;;;;;;;;;;;;11.91;69.64;100720.66;4973825;28;19921;-92
2022/10/16 06:27:46;;;;;;;;;;;;;;;12.26;68.78;100723.19;4974742;28;19914;-95
2022/10/16 06:30:11;;;;;;;;;;;;;;;12.66;68.43;100732.66;4972942;28;19918;-91
2022/10/16 06:32:36;;;;;;;;;;;;;;;13.02;66.02;100734.16;4969216;28;20399;-90
2022/10/16 06:35:02;;;;;;;;;;;;;;;13.13;66.05;100733.16;4973510;28;19921;-90
2022/10/16 06:37:27;;;;;;;;;;;;;;;13.42;65.82;100733.81;4974677;28;19918;-90
2022/10/16 06:39:52;;;;;;;;;;;;;;;13.35;65.23;100736.53;4974650;28;19918;-89
2022/10/16 06:42:18;;;;;;;;;;;;;;;13.77;64.03;100735.16;4979283;28;19933;-87
2022/10/16 06:44:43;;;;;;;;;;;;;;;13.83;63.44;100741.31;4972623;28;19957;-86
2022/10/16 06:47:09;;;;;;;;;;;;;;;14.27;62.46;100745.16;4973498;28;19968;-87
2022/10/16 06:49:34;;;;;;;;;;;;;;;14.07;62.17;100748.09;4972812;28;20376;-87
2022/10/16 06:51:59;;;;;;;;;;;;;;;13.92;61.77;100746.50;4983427;28;19918;-87
2022/10/16 06:54:25;;;;;;;;;;;;;;;14.08;62.41;100753.38;4973193;28;20069;-87
2022/10/16 06:56:51;;;;;;;;;;;;;;;14.05;61.12;100760.50;4974170;28;20411;-94
2022/10/16 06:59:16;;;;;;;;;;;;;;;14.08;61.67;100748.06;4962736;28;19967;-94
2022/10/16 07:01:49;;;;;;;;;;;;;;;14.18;60.22;100748.84;4979134;28;20034;-96
2022/10/16 07:07:28;;;;;;;;;;;;;;;14.54;60.82;100746.56;4975887;28;20122;-92
2022/10/16 07:09:54;;;;;;;;;;;;;;;14.68;59.53;100752.56;4974766;28;19910;-95
2022/10/16 07:12:19;;;;;;;;;;;;;;;14.59;59.66;100751.81;4973478;28;19925;-93
2022/10/16 07:14:45;;;;;;;;;;;;;;;14.59;60.74;100751.81;4973701;28;20373;-90
2022/10/16 07:17:10;;;;;;;;;;;;;;;14.82;59.86;100760.34;4979429;28;19929;-90
2022/10/16 07:19:45;;;;;;;;;;;;;;;15.00;58.56;100760.97;4974257;28;19953;-93
2022/10/16 07:22:10;;;;;;;;;;;;;;;14.88;58.13;100763.81;4983837;28;19920;-91
2022/10/16 07:24:36;;;;;;;;;;;;;;;14.69;58.57;100756.13;4973095;28;19914;-90
2022/10/16 07:27:01;;;;;;;;;;;;;;;14.96;57.48;100769.88;4973418;28;19920;-90
2022/10/16 07:29:27;;;;;;;;;;;;;;;14.62;58.54;100768.59;4973127;28;20499;-90
2022/10/16 07:31:53;;;;;;;;;;;;;;;14.68;58.46;100765.84;4972674;28;20345;-95
2022/10/16 07:34:23;;;;;;;;;;;;;;;14.80;57.88;100766.59;4975518;28;19925;-92
2022/10/16 07:36:49;;;;;;;;;;;;;;;15.00;57.20;100758.31;4971937;28;19930;-93
2022/10/16 07:39:15;;;;;;;;;;;;;;;14.95;57.97;100766.34;4955183;28;19925;-94
2022/10/16 07:41:40;;;;;;;;;;;;;;;15.44;56.97;100759.28;4984249;28;19922;-93
2022/10/16 07:44:07;;;;;;;;;;;;;;;15.73;57.03;100756.09;4972554;28;19914;-91
2022/10/16 07:46:33;;;;;;;;;;;;;;;16.14;55.46;100757.97;4956255;28;20286;-93
2022/10/16 07:48:59;;;;;;;;;;;;;;;16.03;54.54;100758.19;4972396;28;19921;-91
2022/10/16 07:51:25;;;;;;;;;;;;;;;15.93;54.75;100760.19;4971783;28;20294;-92
2022/10/16 07:53:51;;;;;;;;;;;;;;;16.25;53.55;100761.28;4955775;28;20324;-91
2022/10/16 07:56:17;;;;;;;;;;;;;;;16.14;53.48;100757.97;4973153;28;19910;-92
2022/10/16 07:58:43;;;;;;;;;;;;;;;16.34;53.86;100763.75;4973203;28;19989;-93
2022/10/16 08:01:10;;;;;;;;;;;;;;;16.56;53.35;100760.59;4976969;28;19914;-93
2022/10/16 08:03:35;;;;;;;;;;;;;;;16.58;53.10;100757.00;4972441;28;19914;-93
2022/10/16 08:06:01;;;;;;;;;;;;;;;16.67;52.14;100763.00;4982103;28;19974;-94
2022/10/16 08:08:27;;;;;;;;;;;;;;;17.23;51.81;100751.94;4978536;28;19918;-92
2022/10/16 08:10:52;;;;;;;;;;;;;;;17.12;51.25;100755.75;4975772;28;19921;-92
2022/10/16 08:13:19;;;;;;;;;;;;;;;17.01;51.61;100749.81;4981442;28;19905;-89
2022/10/16 08:15:45;;;;;;;;;;;;;;;16.94;50.92;100754.41;4972016;28;20088;-89
2022/10/16 08:18:11;;;;;;;;;;;;;;;16.89;51.74;100750.97;4981707;28;19975;-90
2022/10/16 08:20:36;;;;;;;;;;;;;;;16.83;50.98;100751.09;4976976;28;19914;-91
2022/10/16 08:23:02;;;;;;;;;;;;;;;17.03;52.79;100742.66;4971497;28;19921;-90
2022/10/16 08:25:28;;;;;;;;;;;;;;;17.01;53.26;100747.16;4972837;28;19918;-90
2022/10/16 08:27:53;;;;;;;;;;;;;;;18.03;49.25;100744.44;4972053;28;19914;-91
2022/10/16 08:30:20;;;;;;;;;;;;;;;18.30;47.88;100744.53;4977459;28;19918;-91
2022/10/16 08:32:45;;;;;;;;;;;;;;;17.83;49.43;100745.84;4976878;28;19914;-92
2022/10/16 08:35:11;;;;;;;;;;;;;;;17.93;48.43;100745.63;4975567;28;20305;-91
2022/10/16 08:37:37;;;;;;;;;;;;;;;18.19;47.72;100736.84;4976777;28;19914;-88
2022/10/16 08:40:03;;;;;;;;;;;;;;;17.68;48.44;100731.13;4976091;28;19925;-88
2022/10/16 08:42:34;;;;;;;;;;;;;;;17.80;48.09;100734.41;4975337;28;19918;-89
2022/10/16 08:45:17;;;;;;;;;;;;;;;17.89;47.93;100736.84;4975757;28;19953;-90
2022/10/16 08:47:50;;;;;;;;;;;;;;;18.32;47.36;100738.25;4975498;28;19977;-90
2022/10/16 08:50:23;;;;;;;;;;;;;;;17.78;48.66;100737.13;4978523;28;19918;-91
2022/10/16 08:52:49;;;;;;;;;;;;;;;17.94;47.75;100734.91;4979452;28;19914;-95
2022/10/16 08:55:27;;;;;;;;;;;;;;;17.88;46.53;100738.59;4979685;28;20434;-92
2022/10/16 08:57:55;;;;;;;;;;;;;;;17.54;46.27;100739.53;4986144;28;19953;-93
2022/10/16 09:00:20;;;;;;;;;;;;;;;17.53;47.66;100736.91;4966519;28;19910;-93
2022/10/16 09:03:18;;;;;;;;;;;;;;;17.89;47.31;100735.03;4980081;28;20348;-94
2022/10/16 09:05:57;;;;;;;;;;;;;;;18.15;45.61;100737.84;4949156;28;19968;-96
2022/10/16 09:08:32;;;;;;;;;;;;;;;18.15;46.24;100733.41;4964280;28;19914;-94
2022/10/16 09:11:04;;;;;;;;;;;;;;;18.45;45.11;100730.72;4963104;28;19985;-91
2022/10/16 09:17:14;;;;;;;;;;;;;;;18.20;43.21;100734.13;4939742;28;20316;-96
2022/10/16 09:22:32;;;;;;;;;;;;;;;18.08;42.58;100735.34;4950777;28;19920;-96
2022/10/16 09:25:00;;;;;;;;;;;;;;;18.07;42.30;100741.66;4967674;28;19914;-95
2022/10/16 09:27:28;;;;;;;;;;;;;;;17.96;42.60;100741.06;4964569;28;19914;-94
2022/10/16 09:29:57;;;;;;;;;;;;;;;18.13;42.95;100734.34;4940884;29;19923;-94
2022/10/16 09:32:23;;;;;;;;;;;;;;;17.98;43.54;100733.00;4940915;29;19921;-95
2022/10/16 09:34:58;;;;;;;;;;;;;;;18.31;43.45;100723.13;4940259;29;20005;-94
2022/10/16 09:37:40;;;;;;;;;;;;;;;18.69;43.88;100726.41;4940547;29;19914;-93
2022/10/16 09:40:15;;;;;;;;;;;;;;;18.40;43.10;100720.16;4941632;29;19922;-93
2022/10/16 09:42:43;;;;;;;;;;;;;;;18.25;42.19;100721.50;4940929;29;20021;-94
2022/10/16 09:45:29;;;;;;;;;;;;;;;18.01;42.74;100714.22;4954277;29;19981;-95
2022/10/16 09:47:56;;;;;;;;;;;;;;;18.29;41.71;100714.28;4935620;29;20295;-88
2022/10/16 09:50:26;;;;;;;;;;;;;;;18.33;44.34;100707.91;4919873;29;19954;-94
2022/10/16 09:53:02;;;;;;;;;;;;;;;18.68;42.79;100705.94;4920232;29;19988;-92
2022/10/16 09:55:27;;;;;;;;;;;;;;;18.98;41.89;100705.88;4925740;29;19921;-88
2022/10/16 09:57:53;;;;;;;;;;;;;;;18.51;41.77;100694.94;4936775;29;20387;-90
2022/10/16 10:00:19;;;;;;;;;;;;;;;18.90;40.90;100697.22;4935929;29;19915;-90
2022/10/16 10:02:46;;;;;;;;;;;;;;;18.82;41.39;100696.59;4936099;29;19914;-92
2022/10/16 10:05:28;;;;;;;;;;;;;;;18.75;41.68;100686.09;4929039;29;19925;-91
2022/10/16 10:07:55;;;;;;;;;;;;;;;19.22;40.23;100684.56;4933814;29;19914;-91
2022/10/16 10:10:22;;;;;;;;;;;;;;;19.29;39.74;100686.06;4934229;29;19919;-91
2022/10/16 10:12:47;;;;;;;;;;;;;;;19.27;40.45;100688.81;4933837;29;19945;-92
2022/10/16 10:15:14;;;;;;;;;;;;;;;19.10;40.22;100681.38;4935986;29;19915;-93
2022/10/16 10:17:47;;;;;;;;;;;;;;;18.86;38.94;100688.47;4949228;29;19925;-91
2022/10/16 10:20:22;;;;;;;;;;;;;;;18.98;38.49;100684.47;4934040;29;19918;-92
2022/10/16 10:22:48;;;;;;;;;;;;;;;18.78;39.45;100679.75;4934159;29;19914;-94
2022/10/16 10:25:14;;;;;;;;;;;;;;;18.73;39.63;100687.94;4939295;29;19921;-93
2022/10/16 10:27:48;;;;;;;;;;;;;;;18.57;39.86;100689.38;4936268;29;19922;-94
2022/10/16 10:30:16;;;;;;;;;;;;;;;18.95;38.79;100685.47;4960984;28;19977;-93
2022/10/16 10:33:01;;;;;;;;;;;;;;;18.76;39.52;100676.28;4971796;28;19918;-93
2022/10/16 10:35:32;;;;;;;;;;;;;;;19.07;39.07;100673.47;4968801;28;20535;-92
2022/10/16 10:38:18;;;;;;;;;;;;;;;19.35;38.04;100679.66;4974280;28;20428;-91
2022/10/16 10:40:50;;;;;;;;;;;;;;;19.43;37.63;100664.19;4975029;28;19921;-94
2022/10/16 10:43:16;;;;;;;;;;;;;;;19.36;37.96;100666.22;4957850;28;19922;-94
2022/10/16 10:45:50;;;;;;;;;;;;;;;19.42;37.41;100663.31;4973553;28;20440;-93
2022/10/16 10:48:15;;;;;;;;;;;;;;;19.35;37.73;100661.78;4967567;28;20423;-92
2022/10/16 10:50:46;;;;;;;;;;;;;;;19.36;37.50;100651.97;4972010;28;20004;-93
2022/10/16 10:53:30;;;;;;;;;;;;;;;19.17;37.50;100657.09;4955521;28;19917;-92
2022/10/16 10:56:04;;;;;;;;;;;;;;;19.13;37.16;100654.53;4974521;28;19914;-87
2022/10/16 10:58:48;;;;;;;;;;;;;;;19.21;37.29;100653.41;4973557;28;19914;-89
2022/10/16 11:01:13;;;;;;;;;;;;;;;19.13;37.70;100649.19;4970032;28;19945;-86
2022/10/16 11:03:44;;;;;;;;;;;;;;;19.18;38.23;100650.81;4972683;28;19957;-87
2022/10/16 11:06:26;;;;;;;;;;;;;;;19.13;37.64;100651.84;4970092;28;19914;-88
2022/10/16 11:09:02;;;;;;;;;;;;;;;19.29;37.72;100648.63;4973836;28;19910;-88
2022/10/16 11:11:28;;;;;;;;;;;;;;;19.42;37.85;100649.09;4960724;28;19922;-87
2022/10/16 11:13:53;;;;;;;;;;;;;;;19.51;37.99;100643.41;4972130;28;20376;-86
2022/10/16 11:16:25;;;;;;;;;;;;;;;19.55;37.18;100649.50;4973208;28;19914;-86
2022/10/16 11:19:09;;;;;;;;;;;;;;;19.65;36.80;100634.84;4973580;28;19914;-88
2022/10/16 11:21:39;;;;;;;;;;;;;;;19.68;36.56;100640.94;4973763;28;19910;-88
2022/10/16 11:24:10;;;;;;;;;;;;;;;19.73;36.71;100626.53;4973087;28;19918;-89
2022/10/16 11:26:39;;;;;;;;;;;;;;;19.56;37.79;100638.72;4973311;28;19914;-88
2022/10/16 11:29:12;;;;;;;;;;;;;;;19.60;38.29;100639.47;4972989;28;19918;-88
2022/10/16 11:31:47;;;;;;;;;;;;;;;19.90;37.57;100626.78;4973146;28;19957;-87
2022/10/16 11:34:19;;;;;;;;;;;;;;;20.02;37.19;100628.97;4973084;28;19929;-85
2022/10/16 11:36:47;;;;;;;;;;;;;;;19.77;37.02;100626.38;4969238;28;19997;-86
2022/10/16 11:39:26;;;;;;;;;;;;;;;19.81;36.84;100619.97;4971667;28;20312;-85
2022/10/16 11:42:10;;;;;;;;;;;;;;;19.98;37.50;100626.47;4967119;28;19922;-85
2022/10/16 11:44:44;;;;;;;;;;;;;;;20.12;37.22;100626.78;4971365;28;19969;-85
2022/10/16 11:47:23;;;;;;;;;;;;;;;20.40;36.41;100620.31;4971612;28;19918;-90
2022/10/16 11:49:51;;;;;;;;;;;;;;;20.44;37.12;100623.75;4969363;28;19929;-87
2022/10/16 11:52:16;;;;;;;;;;;;;;;20.49;36.36;100619.94;4972949;28;20008;-88
2022/10/16 11:54:44;;;;;;;;;;;;;;;20.72;35.66;100615.47;4973373;28;20373;-89
2022/10/16 11:57:16;;;;;;;;;;;;;;;20.72;34.89;100621.69;4972533;28;19969;-91
2022/10/16 12:00:05;;;;;;;;;;;;;;;20.18;34.26;100626.53;4952970;28;19988;-89
2022/10/16 12:02:40;;;;;;;;;;;;;;;20.39;34.83;100615.91;4964742;28;20417;-89
2022/10/16 12:05:05;;;;;;;;;;;;;;;20.26;35.65;100622.69;4976351;28;19972;-91
2022/10/16 12:07:40;;;;;;;;;;;;;;;19.95;35.30;100626.59;4976645;28;20388;-88
2022/10/16 12:10:22;;;;;;;;;;;;;;;19.98;35.13;100626.47;4976668;28;19914;-89
2022/10/16 12:12:48;;;;;;;;;;;;;;;20.04;35.27;100626.22;4976531;28;20400;-90
2022/10/16 12:15:20;;;;;;;;;;;;;;;20.06;34.67;100621.69;4976626;28;19933;-88
2022/10/16 12:17:45;;;;;;;;;;;;;;;19.65;35.68;100622.31;4976121;28;20387;-88
2022/10/16 12:20:11;;;;;;;;;;;;;;;19.65;36.50;100618.78;4980761;28;19918;-88
2022/10/16 12:22:36;;;;;;;;;;;;;;;19.94;35.51;100617.69;4983039;28;19921;-88
2022/10/16 12:25:01;;;;;;;;;;;;;;;19.67;35.87;100630.31;4979412;28;19914;-89
2022/10/16 12:27:32;;;;;;;;;;;;;;;20.04;35.44;100620.88;4972435;28;19926;-90
2022/10/16 12:29:59;;;;;;;;;;;;;;;20.08;35.53;100625.19;4976229;28;19929;-90
2022/10/16 12:32:24;;;;;;;;;;;;;;;20.10;35.61;100628.66;4975221;28;19914;-90
2022/10/16 12:34:49;;;;;;;;;;;;;;;20.21;34.88;100626.41;4975083;28;20403;-89
2022/10/16 12:37:20;;;;;;;;;;;;;;;20.12;34.97;100628.59;4975342;28;19968;-88
2022/10/16 12:39:47;;;;;;;;;;;;;;;20.09;34.49;100629.59;4975649;28;19914;-88
2022/10/16 12:42:29;;;;;;;;;;;;;;;20.20;35.90;100629.16;4975311;28;20041;-87
2022/10/16 12:44:55;;;;;;;;;;;;;;;20.59;35.03;100628.47;4958715;28;19914;-89
2022/10/16 12:47:43;;;;;;;;;;;;;;;20.30;33.89;100637.72;4976007;28;19914;-88
2022/10/16 12:50:30;;;;;;;;;;;;;;;20.54;35.51;100631.34;4975722;28;20455;-89